Time;durP1;ratioP1;P1;durP2;ratioP2;P2;SDS_P1;SDS_P2;PMS_P1;PMS_P2;Temp;Humidity;BMP_temperature;BMP_pressure;BME280_temperature;BME280_humidity;BME280_pressure;Samples;Min_cycle;Max_cycle;Signal;HPM_P1;HPM_P2
2024/03/26 00:02:02;;;;;;;10.15;4.85;;;3.90;91.30;;;;;;5052882;28;20159;-82
2024/03/26 00:04:29;;;;;;;8.25;4.85;;;3.80;91.30;;;;;;5052940;28;20021;-88
2024/03/26 00:06:55;;;;;;;9.70;5.70;;;3.80;91.40;;;;;;5053995;28;20500;-84
2024/03/26 00:09:21;;;;;;;9.32;5.28;;;3.80;91.40;;;;;;5058911;28;20017;-83
2024/03/26 00:11:47;;;;;;;8.38;5.07;;;3.70;91.50;;;;;;5060037;28;20029;-84
2024/03/26 00:14:13;;;;;;;9.20;4.95;;;3.70;91.60;;;;;;5061662;28;20036;-84
2024/03/26 00:16:39;;;;;;;8.93;4.60;;;3.70;91.60;;;;;;5059012;28;20433;-82
2024/03/26 00:19:04;;;;;;;12.60;5.45;;;3.70;91.70;;;;;;5066343;28;20040;-81
2024/03/26 00:21:30;;;;;;;9.07;5.13;;;3.60;91.80;;;;;;5059813;28;20100;-80
2024/03/26 00:23:56;;;;;;;6.82;4.85;;;3.50;91.80;;;;;;5058816;28;20029;-78
2024/03/26 00:26:22;;;;;;;7.20;4.43;;;3.50;91.90;;;;;;5051988;28;20054;-76
2024/03/26 00:28:48;;;;;;;11.20;5.03;;;3.50;92.00;;;;;;5043612;28;20076;-76
2024/03/26 00:31:13;;;;;;;9.10;5.10;;;3.50;92.20;;;;;;5046095;28;20164;-79
2024/03/26 00:33:39;;;;;;;7.82;4.60;;;3.50;92.20;;;;;;5052786;28;20117;-79
2024/03/26 00:36:05;;;;;;;7.72;5.30;;;3.40;92.20;;;;;;5054815;28;20032;-77
2024/03/26 00:38:31;;;;;;;9.85;5.53;;;3.40;92.30;;;;;;5053755;28;20023;-78
2024/03/26 00:40:58;;;;;;;11.25;6.60;;;3.40;92.40;;;;;;5037400;28;20120;-78
2024/03/26 00:43:24;;;;;;;11.77;6.30;;;3.30;92.50;;;;;;5062530;28;20041;-79
2024/03/26 00:45:50;;;;;;;10.27;6.28;;;3.30;92.60;;;;;;5050883;28;20040;-79
2024/03/26 00:48:16;;;;;;;11.90;5.55;;;3.30;92.70;;;;;;5071945;28;20025;-79
2024/03/26 00:50:41;;;;;;;10.65;7.13;;;3.30;92.70;;;;;;5070213;28;20025;-78
2024/03/26 00:53:07;;;;;;;8.77;5.90;;;3.30;92.80;;;;;;5065941;28;20103;-80
2024/03/26 00:55:33;;;;;;;10.00;6.47;;;3.30;92.90;;;;;;5058019;28;20061;-78
2024/03/26 00:57:59;;;;;;;9.43;6.78;;;3.30;93.00;;;;;;5066579;28;20445;-78
2024/03/26 01:00:25;;;;;;;10.52;6.95;;;3.20;93.00;;;;;;5068861;28;20082;-79
2024/03/26 01:02:50;;;;;;;11.00;6.22;;;3.20;93.10;;;;;;5034363;28;20498;-78
2024/03/26 01:05:16;;;;;;;8.98;6.10;;;3.20;93.10;;;;;;5069300;28;20063;-78
2024/03/26 01:07:42;;;;;;;12.38;7.13;;;3.30;93.20;;;;;;5050786;28;20481;-78
2024/03/26 01:10:08;;;;;;;8.65;6.13;;;3.30;93.20;;;;;;5068383;28;20481;-79
2024/03/26 01:12:34;;;;;;;10.57;6.60;;;3.30;93.20;;;;;;5068571;28;20428;-79
2024/03/26 01:15:01;;;;;;;12.27;7.57;;;3.30;93.30;;;;;;5065072;28;20021;-80
2024/03/26 01:17:27;;;;;;;13.70;6.35;;;3.40;93.30;;;;;;5067463;28;20063;-78
2024/03/26 01:19:52;;;;;;;10.55;6.25;;;3.40;93.30;;;;;;5051313;28;20084;-79
2024/03/26 01:22:18;;;;;;;8.55;6.25;;;3.40;93.30;;;;;;5067470;28;20025;-78
2024/03/26 01:24:44;;;;;;;12.35;6.80;;;3.50;93.30;;;;;;5041265;28;20021;-78
2024/03/26 01:27:10;;;;;;;11.48;6.28;;;3.50;93.30;;;;;;5047754;28;20067;-78
2024/03/26 01:29:35;;;;;;;12.40;7.13;;;3.50;93.30;;;;;;5063171;28;20040;-79
2024/03/26 01:32:02;;;;;;;11.38;7.20;;;3.40;93.20;;;;;;5060441;28;20032;-79
2024/03/26 01:34:28;;;;;;;10.30;7.05;;;3.50;93.30;;;;;;5054724;28;20489;-77
2024/03/26 01:36:54;;;;;;;15.73;6.60;;;3.50;93.40;;;;;;5054536;28;20021;-77
2024/03/26 01:39:20;;;;;;;12.95;6.80;;;3.50;93.30;;;;;;5060589;28;20063;-79
2024/03/26 01:41:46;;;;;;;8.15;6.38;;;3.50;93.30;;;;;;5053346;28;20083;-79
2024/03/26 01:44:12;;;;;;;13.75;5.93;;;3.40;93.40;;;;;;5050800;28;20446;-78
2024/03/26 01:46:38;;;;;;;11.30;6.00;;;3.40;93.50;;;;;;5052695;28;20021;-79
2024/03/26 01:49:07;;;;;;;11.45;6.40;;;3.30;93.50;;;;;;5055180;28;20037;-78
2024/03/26 01:51:34;;;;;;;9.73;7.32;;;3.30;93.60;;;;;;5055188;28;20025;-78
2024/03/26 01:54:02;;;;;;;13.70;6.85;;;3.30;93.70;;;;;;5053580;28;20104;-78
2024/03/26 01:56:29;;;;;;;11.90;7.22;;;3.20;93.80;;;;;;5053327;28;20021;-78
2024/03/26 01:58:55;;;;;;;8.05;6.13;;;3.30;93.90;;;;;;5053516;28;20394;-79
2024/03/26 02:01:23;;;;;;;8.70;6.55;;;3.20;93.90;;;;;;5054497;28;20079;-79
2024/03/26 02:03:49;;;;;;;9.13;6.70;;;3.20;94.00;;;;;;5055029;28;20047;-78
2024/03/26 02:06:16;;;;;;;9.90;6.47;;;3.10;94.00;;;;;;5054389;28;20121;-78
2024/03/26 02:08:42;;;;;;;10.57;7.13;;;3.10;94.10;;;;;;5054822;28;20369;-78
2024/03/26 02:11:09;;;;;;;12.82;8.18;;;3.10;94.10;;;;;;5054619;28;20021;-79
2024/03/26 02:13:35;;;;;;;17.08;10.68;;;3.10;94.20;;;;;;5054396;28;20028;-79
2024/03/26 02:16:00;;;;;;;11.50;7.72;;;3.10;94.30;;;;;;5036447;28;20533;-78
2024/03/26 02:18:26;;;;;;;10.13;7.10;;;3.10;94.20;;;;;;5054579;28;20028;-77
2024/03/26 02:20:52;;;;;;;14.43;8.55;;;3.10;94.20;;;;;;5053097;28;20115;-79
2024/03/26 02:23:21;;;;;;;18.85;8.27;;;3.00;94.30;;;;;;5054751;28;20040;-78
2024/03/26 02:25:48;;;;;;;14.23;8.55;;;3.00;94.40;;;;;;5054729;28;20020;-78
2024/03/26 02:28:13;;;;;;;16.27;9.32;;;3.00;94.50;;;;;;5054255;28;20053;-79
2024/03/26 02:30:39;;;;;;;15.38;9.40;;;3.00;94.60;;;;;;5051568;28;20098;-80
2024/03/26 02:33:05;;;;;;;11.57;7.88;;;3.00;94.60;;;;;;5046066;28;20025;-78
2024/03/26 02:35:31;;;;;;;12.77;8.43;;;3.00;94.60;;;;;;5053887;28;20024;-78
2024/03/26 02:37:57;;;;;;;17.45;9.77;;;3.00;94.70;;;;;;5053348;28;20029;-78
2024/03/26 02:40:23;;;;;;;11.45;8.90;;;3.00;94.60;;;;;;5053749;28;20021;-78
2024/03/26 02:42:49;;;;;;;15.93;7.32;;;3.10;94.70;;;;;;5053662;28;20033;-79
2024/03/26 02:45:16;;;;;;;15.35;10.48;;;3.10;94.70;;;;;;5053671;28;20120;-80
2024/03/26 02:47:41;;;;;;;13.52;9.93;;;3.10;94.70;;;;;;5053950;28;20036;-78
2024/03/26 02:50:08;;;;;;;14.40;7.97;;;3.10;94.70;;;;;;5035959;28;20025;-78
2024/03/26 02:52:35;;;;;;;12.85;9.13;;;3.20;94.60;;;;;;5053247;28;20025;-77
2024/03/26 02:55:01;;;;;;;19.10;10.57;;;3.10;94.60;;;;;;5051800;28;20017;-77
2024/03/26 02:57:27;;;;;;;16.17;9.30;;;3.10;94.70;;;;;;5035336;28;20033;-77
2024/03/26 02:59:53;;;;;;;12.38;8.10;;;3.00;94.80;;;;;;5052014;28;20386;-78
2024/03/26 03:02:20;;;;;;;11.85;8.18;;;3.00;94.80;;;;;;5053341;28;20033;-79
2024/03/26 03:04:46;;;;;;;15.23;9.07;;;3.00;94.90;;;;;;5054080;28;21729;-79
2024/03/26 03:07:12;;;;;;;19.70;9.65;;;2.90;95.00;;;;;;5053553;28;20060;-79
2024/03/26 03:09:38;;;;;;;14.40;8.80;;;2.90;95.20;;;;;;5053359;28;20021;-77
2024/03/26 03:12:04;;;;;;;14.63;9.57;;;2.90;95.30;;;;;;5048584;28;20040;-79
2024/03/26 03:14:30;;;;;;;13.95;9.13;;;2.90;95.30;;;;;;5050138;28;20056;-79
2024/03/26 03:16:55;;;;;;;13.68;9.52;;;2.90;95.40;;;;;;5052959;28;20021;-79
2024/03/26 03:19:21;;;;;;;15.90;8.68;;;3.00;95.40;;;;;;5053347;28;20048;-79
2024/03/26 03:21:47;;;;;;;12.88;8.73;;;3.00;95.50;;;;;;5053429;28;20379;-78
2024/03/26 03:24:13;;;;;;;15.02;10.15;;;3.10;95.40;;;;;;5035242;28;20103;-79
2024/03/26 03:26:38;;;;;;;16.70;8.50;;;3.20;95.30;;;;;;5053070;28;20028;-80
2024/03/26 03:29:04;;;;;;;11.65;9.43;;;3.20;95.40;;;;;;5027529;28;20435;-79
2024/03/26 03:31:30;;;;;;;15.07;9.93;;;3.20;95.40;;;;;;5040904;28;20095;-79
2024/03/26 03:33:56;;;;;;;18.95;12.18;;;3.30;95.30;;;;;;5052782;28;20064;-78
2024/03/26 03:36:23;;;;;;;19.42;11.95;;;3.20;95.50;;;;;;5051143;28;20021;-79
2024/03/26 03:38:49;;;;;;;20.52;10.25;;;3.30;95.70;;;;;;5049810;28;20058;-79
2024/03/26 03:41:14;;;;;;;17.48;11.30;;;3.30;95.70;;;;;;5052463;28;20033;-78
2024/03/26 03:43:40;;;;;;;17.45;9.88;;;3.30;95.70;;;;;;5053261;28;20033;-79
2024/03/26 03:46:06;;;;;;;22.88;13.07;;;3.30;95.60;;;;;;5052053;28;20017;-80
2024/03/26 03:48:32;;;;;;;22.40;12.43;;;3.40;95.50;;;;;;5050793;28;20036;-79
2024/03/26 03:50:58;;;;;;;19.92;10.88;;;3.40;95.60;;;;;;5047795;28;20013;-78
2024/03/26 03:53:23;;;;;;;14.20;10.18;;;3.40;95.50;;;;;;5053021;28;20699;-80
2024/03/26 03:55:49;;;;;;;22.17;11.73;;;3.50;95.40;;;;;;5052712;28;20036;-78
2024/03/26 03:58:15;;;;;;;15.27;9.90;;;3.50;95.30;;;;;;5052458;28;20029;-79
2024/03/26 04:00:41;;;;;;;18.17;11.32;;;3.50;95.30;;;;;;5052548;28;20036;-80
2024/03/26 04:03:07;;;;;;;19.80;13.55;;;3.50;95.20;;;;;;5051620;28;20048;-79
2024/03/26 04:05:39;;;;;;;20.55;11.63;;;3.50;95.40;;;;;;5053305;28;20021;-79
2024/03/26 04:08:06;;;;;;;19.55;11.00;;;3.50;95.50;;;;;;5052659;28;20036;-79
2024/03/26 04:10:31;;;;;;;21.42;12.90;;;3.60;95.40;;;;;;5053784;28;20099;-78
2024/03/26 04:12:57;;;;;;;15.57;10.32;;;3.60;95.30;;;;;;5039894;28;20056;-79
2024/03/26 04:15:23;;;;;;;16.58;9.57;;;3.60;95.30;;;;;;5053069;28;20025;-78
2024/03/26 04:17:52;;;;;;;16.85;11.63;;;3.70;95.10;;;;;;5052378;28;20552;-78
2024/03/26 04:20:18;;;;;;;17.60;10.95;;;3.70;94.90;;;;;;5053634;28;20047;-77
2024/03/26 04:22:49;;;;;;;21.73;11.98;;;3.80;94.70;;;;;;5052828;28;20136;-79
2024/03/26 04:25:15;;;;;;;17.88;11.70;;;3.80;94.70;;;;;;5048911;28;20021;-79
2024/03/26 04:27:42;;;;;;;24.23;11.00;;;3.80;94.60;;;;;;5041957;28;20076;-79
2024/03/26 04:30:11;;;;;;;16.27;11.13;;;3.80;94.50;;;;;;5053275;28;20029;-80
2024/03/26 04:32:37;;;;;;;20.50;10.52;;;3.80;94.50;;;;;;5053665;28;20017;-78
2024/03/26 04:35:03;;;;;;;20.75;11.95;;;3.80;94.70;;;;;;5055293;28;20099;-79
2024/03/26 04:37:28;;;;;;;19.67;11.25;;;3.80;94.70;;;;;;5055039;28;20060;-79
2024/03/26 04:39:54;;;;;;;15.73;10.45;;;3.90;94.60;;;;;;5052941;28;20389;-79
2024/03/26 04:42:22;;;;;;;22.42;10.77;;;3.90;94.60;;;;;;5051765;28;20060;-78
2024/03/26 04:44:48;;;;;;;24.65;10.82;;;3.90;94.60;;;;;;5052161;28;20017;-79
2024/03/26 04:47:14;;;;;;;18.00;11.15;;;4.00;94.60;;;;;;5042283;28;20144;-76
2024/03/26 04:49:39;;;;;;;19.67;11.40;;;4.10;94.60;;;;;;5064669;28;20021;-78
2024/03/26 04:52:06;;;;;;;23.38;11.68;;;4.10;94.60;;;;;;5046827;28;20436;-79
2024/03/26 04:54:31;;;;;;;17.33;12.27;;;4.10;94.60;;;;;;5053672;28;20025;-78
2024/03/26 04:56:57;;;;;;;14.63;10.20;;;4.20;94.40;;;;;;5066978;28;20385;-79
2024/03/26 04:59:23;;;;;;;13.15;10.05;;;4.40;94.20;;;;;;5060840;28;20056;-79
2024/03/26 05:02:07;;;;;;;13.23;8.60;;;4.70;93.90;;;;;;5066459;28;20036;-79
2024/03/26 05:04:46;;;;;;;16.23;9.90;;;4.80;93.50;;;;;;5056538;28;20021;-78
2024/03/26 05:07:15;;;;;;;15.25;9.07;;;4.80;93.50;;;;;;5066116;28;20028;-79
2024/03/26 05:09:40;;;;;;;16.73;9.73;;;4.80;93.20;;;;;;5051663;28;20025;-80
2024/03/26 05:12:06;;;;;;;16.95;8.73;;;4.90;93.20;;;;;;5066409;28;20025;-78
2024/03/26 05:14:32;;;;;;;13.13;8.48;;;5.00;93.10;;;;;;5060891;28;20021;-79
2024/03/26 05:16:58;;;;;;;13.27;8.20;;;5.00;92.80;;;;;;5069315;28;20020;-79
2024/03/26 05:19:23;;;;;;;13.77;8.15;;;5.10;92.40;;;;;;5068457;28;20076;-79
2024/03/26 05:21:49;;;;;;;12.82;8.52;;;5.20;92.00;;;;;;5068375;28;20462;-79
2024/03/26 05:24:15;;;;;;;13.73;8.68;;;5.20;91.80;;;;;;5037297;28;20029;-78
2024/03/26 05:26:41;;;;;;;17.48;11.43;;;5.30;91.80;;;;;;5056369;28;20068;-80
2024/03/26 05:29:07;;;;;;;25.85;8.82;;;5.20;91.90;;;;;;5069831;28;20055;-78
2024/03/26 05:31:33;;;;;;;13.90;7.68;;;5.30;91.90;;;;;;5057588;28;20037;-78
2024/03/26 05:33:58;;;;;;;14.43;8.02;;;5.30;91.80;;;;;;5056476;28;20056;-79
2024/03/26 05:36:24;;;;;;;21.35;7.63;;;5.30;91.40;;;;;;5055263;28;20112;-81
2024/03/26 05:38:50;;;;;;;10.05;6.78;;;5.40;91.20;;;;;;5055614;28;20021;-79
2024/03/26 05:41:16;;;;;;;14.88;7.10;;;5.50;91.30;;;;;;5054080;28;20382;-80
2024/03/26 05:43:42;;;;;;;13.10;6.75;;;5.60;91.30;;;;;;5064156;28;20059;-78
2024/03/26 05:46:10;;;;;;;11.57;7.03;;;5.80;90.70;;;;;;5066399;28;20020;-80
2024/03/26 05:48:36;;;;;;;11.55;7.95;;;5.90;90.40;;;;;;5068374;28;20024;-79
2024/03/26 05:51:02;;;;;;;13.60;7.57;;;6.00;90.30;;;;;;5067412;28;20017;-80
2024/03/26 05:53:27;;;;;;;14.60;6.57;;;6.20;90.30;;;;;;5052279;28;20025;-80
2024/03/26 05:55:53;;;;;;;11.85;6.65;;;6.30;89.30;;;;;;5062643;28;20083;-80
2024/03/26 05:58:19;;;;;;;13.20;7.15;;;6.40;88.80;;;;;;5060402;28;20503;-80
2024/03/26 06:00:45;;;;;;;14.75;7.63;;;6.40;88.80;;;;;;5042168;28;20025;-80
2024/03/26 06:03:11;;;;;;;18.17;7.32;;;6.50;88.60;;;;;;5063995;28;20053;-80
2024/03/26 06:05:40;;;;;;;19.17;6.03;;;6.60;88.20;;;;;;5061637;28;20025;-79
2024/03/26 06:08:07;;;;;;;9.57;5.88;;;6.70;87.90;;;;;;5044047;28;20075;-80
2024/03/26 06:10:33;;;;;;;12.82;5.25;;;6.80;86.10;;;;;;5061056;28;20086;-79
2024/03/26 06:12:58;;;;;;;14.77;6.28;;;6.90;85.60;;;;;;5058633;28;20541;-78
2024/03/26 06:15:24;;;;;;;23.30;6.00;;;7.10;85.60;;;;;;5057599;28;20490;-77
2024/03/26 06:17:50;;;;;;;18.33;4.90;;;7.30;84.90;;;;;;5058411;28;20156;-78
2024/03/26 06:20:16;;;;;;;14.52;5.65;;;7.50;84.10;;;;;;5062362;28;20453;-79
2024/03/26 06:22:42;;;;;;;16.42;6.00;;;7.30;83.10;;;;;;5058067;28;20025;-78
2024/03/26 06:25:08;;;;;;;13.93;5.97;;;7.20;83.30;;;;;;5060627;28;20394;-78
2024/03/26 06:27:33;;;;;;;12.40;5.75;;;7.30;83.10;;;;;;5058968;28;20391;-79
2024/03/26 06:30:00;;;;;;;17.90;6.05;;;7.50;82.60;;;;;;5058624;28;20030;-78
2024/03/26 06:32:26;;;;;;;17.97;7.00;;;7.50;81.60;;;;;;5058370;28;20390;-78
2024/03/26 06:34:52;;;;;;;26.42;6.50;;;7.50;81.90;;;;;;5058013;28;20009;-78
2024/03/26 06:37:18;;;;;;;12.85;5.03;;;7.70;81.80;;;;;;5062109;28;20105;-80
2024/03/26 06:39:44;;;;;;;7.40;4.05;;;7.70;79.50;;;;;;5039433;28;20031;-78
2024/03/26 06:42:10;;;;;;;13.50;4.55;;;7.60;79.30;;;;;;5053770;28;20033;-78
2024/03/26 06:44:37;;;;;;;10.13;4.35;;;7.50;79.50;;;;;;5053704;28;20024;-79
2024/03/26 06:47:03;;;;;;;7.35;4.35;;;7.40;79.90;;;;;;5040991;28;20113;-79
2024/03/26 06:49:28;;;;;;;18.58;6.13;;;7.60;79.30;;;;;;5054709;28;20517;-78
2024/03/26 06:51:54;;;;;;;19.65;6.18;;;7.50;79.10;;;;;;5057711;28;20500;-78
2024/03/26 06:54:20;;;;;;;13.95;4.22;;;7.70;79.90;;;;;;5057870;28;20028;-78
2024/03/26 06:56:46;;;;;;;10.68;4.05;;;8.00;78.70;;;;;;5058790;28;20029;-79
2024/03/26 06:59:14;;;;;;;11.98;4.00;;;8.30;77.40;;;;;;5036806;28;20028;-79
2024/03/26 07:01:41;;;;;;;12.95;3.95;;;8.50;76.80;;;;;;5059732;28;20048;-79
2024/03/26 07:04:07;;;;;;;12.43;5.30;;;8.70;75.90;;;;;;5063267;28;20040;-79
2024/03/26 07:06:33;;;;;;;13.23;4.00;;;8.70;74.30;;;;;;5057843;28;20028;-79
2024/03/26 07:08:59;;;;;;;13.55;4.85;;;8.60;74.40;;;;;;5042921;28;20052;-79
2024/03/26 07:11:30;;;;;;;11.40;5.28;;;8.50;74.30;;;;;;5033575;28;20179;-79
2024/03/26 07:13:56;;;;;;;7.28;4.15;;;8.30;74.80;;;;;;5060792;28;20131;-82
2024/03/26 07:16:22;;;;;;;14.93;4.78;;;8.10;75.00;;;;;;5041151;28;20478;-81
2024/03/26 07:18:51;;;;;;;7.50;3.35;;;8.20;75.60;;;;;;5057278;28;20032;-80
2024/03/26 07:21:17;;;;;;;9.55;4.40;;;8.70;73.50;;;;;;5058623;28;20033;-81
2024/03/26 07:23:43;;;;;;;15.32;5.63;;;9.00;72.60;;;;;;5063086;28;20031;-80
2024/03/26 07:26:10;;;;;;;13.43;4.80;;;9.70;71.70;;;;;;5067337;28;20087;-81
2024/03/26 07:28:37;;;;;;;11.98;4.63;;;10.10;68.70;;;;;;5057944;28;20021;-81
2024/03/26 07:31:04;;;;;;;12.13;4.47;;;10.10;68.30;;;;;;5050804;28;20024;-80
2024/03/26 07:33:30;;;;;;;8.95;4.68;;;10.40;68.00;;;;;;5056345;28;20029;-83
2024/03/26 07:35:55;;;;;;;13.60;4.95;;;10.50;67.10;;;;;;5058488;28;20414;-81
2024/03/26 07:38:21;;;;;;;13.73;4.82;;;10.70;67.20;;;;;;5052938;28;20079;-81
2024/03/26 07:40:50;;;;;;;12.68;4.20;;;10.70;66.50;;;;;;5033563;28;20398;-82
2024/03/26 07:43:17;;;;;;;15.13;4.22;;;11.20;65.30;;;;;;5020064;28;20076;-82
2024/03/26 07:45:43;;;;;;;20.02;4.07;;;11.70;65.00;;;;;;5047347;28;20017;-81
2024/03/26 07:48:08;;;;;;;9.85;4.07;;;12.20;62.90;;;;;;5053715;28;20027;-80
2024/03/26 07:50:34;;;;;;;12.25;4.32;;;12.60;61.60;;;;;;5053410;28;20496;-81
2024/03/26 07:53:00;;;;;;;11.80;3.80;;;12.20;60.30;;;;;;5045648;28;20040;-78
2024/03/26 07:55:26;;;;;;;4.40;2.30;;;11.30;62.40;;;;;;5052811;28;20032;-78
2024/03/26 07:57:52;;;;;;;9.57;3.60;;;11.00;62.90;;;;;;5053136;28;20056;-79
2024/03/26 08:00:18;;;;;;;7.90;3.63;;;10.80;63.30;;;;;;5052715;28;20079;-80
2024/03/26 08:02:44;;;;;;;9.98;4.07;;;10.80;63.60;;;;;;5052666;28;20116;-79
2024/03/26 08:05:10;;;;;;;9.50;3.80;;;11.10;63.80;;;;;;5034891;28;20160;-81
2024/03/26 08:07:36;;;;;;;9.75;4.25;;;11.60;62.40;;;;;;5053119;28;20029;-80
2024/03/26 08:10:02;;;;;;;8.73;4.07;;;11.70;62.20;;;;;;5038353;28;20488;-81
2024/03/26 08:12:28;;;;;;;14.38;4.05;;;12.10;61.50;;;;;;5053100;28;20107;-79
2024/03/26 08:14:54;;;;;;;12.73;4.55;;;12.10;59.90;;;;;;5052889;28;20025;-80
2024/03/26 08:17:20;;;;;;;10.10;3.40;;;11.90;60.40;;;;;;5052907;28;20032;-79
2024/03/26 08:19:45;;;;;;;17.42;5.20;;;12.10;60.60;;;;;;5052567;28;20055;-79
2024/03/26 08:22:11;;;;;;;14.88;4.43;;;12.40;59.40;;;;;;5053291;28;20040;-79
2024/03/26 08:24:37;;;;;;;10.85;3.92;;;12.50;59.90;;;;;;5052939;28;20028;-79
2024/03/26 08:27:03;;;;;;;8.13;3.78;;;12.30;59.60;;;;;;5052619;28;20103;-80
2024/03/26 08:29:29;;;;;;;8.95;3.83;;;12.50;58.70;;;;;;5052197;28;20029;-79
2024/03/26 08:31:55;;;;;;;10.98;4.18;;;12.40;59.30;;;;;;5052373;28;20051;-79
2024/03/26 08:34:20;;;;;;;9.75;3.70;;;12.20;58.70;;;;;;5052308;28;20036;-80
2024/03/26 08:36:49;;;;;;;10.13;3.53;;;12.50;59.20;;;;;;5052185;28;20029;-79
2024/03/26 08:39:15;;;;;;;11.50;4.45;;;12.90;58.40;;;;;;5043733;28;20047;-80
2024/03/26 08:41:41;;;;;;;6.93;3.30;;;13.00;58.40;;;;;;5052706;28;20065;-79
2024/03/26 08:44:07;;;;;;;12.05;4.30;;;13.90;57.40;;;;;;5052738;28;20076;-80
2024/03/26 08:46:33;;;;;;;4.82;3.10;;;15.00;55.50;;;;;;5049368;28;20025;-80
2024/03/26 08:48:59;;;;;;;7.88;3.03;;;15.90;52.20;;;;;;5046358;28;20394;-81
2024/03/26 08:51:28;;;;;;;13.48;4.53;;;15.50;52.40;;;;;;5039763;28;20150;-81
2024/03/26 08:53:58;;;;;;;13.52;4.30;;;15.90;52.70;;;;;;5060437;28;20458;-81
2024/03/26 08:56:24;;;;;;;5.35;3.63;;;16.70;51.50;;;;;;5060257;28;20019;-81
2024/03/26 08:58:56;;;;;;;6.40;4.30;;;17.10;50.00;;;;;;5040750;28;20021;-81
2024/03/26 09:01:22;;;;;;;5.07;3.88;;;17.70;49.70;;;;;;5063578;28;20044;-82
2024/03/26 09:03:48;;;;;;;5.70;3.53;;;18.80;47.80;;;;;;5054069;28;20025;-81
2024/03/26 09:06:14;;;;;;;7.50;3.42;;;18.80;45.40;;;;;;5066798;28;20033;-81
2024/03/26 09:08:39;;;;;;;11.20;5.47;;;18.00;46.40;;;;;;5066386;28;20459;-80
2024/03/26 09:11:05;;;;;;;8.95;3.35;;;17.80;47.30;;;;;;5065385;28;20021;-80
2024/03/26 09:13:31;;;;;;;11.32;4.70;;;17.30;46.70;;;;;;5052738;28;20111;-82
2024/03/26 09:15:57;;;;;;;4.22;3.28;;;17.00;47.90;;;;;;5069810;28;20123;-81
2024/03/26 09:18:23;;;;;;;8.52;4.30;;;16.60;48.30;;;;;;5068463;28;20439;-82
2024/03/26 09:20:49;;;;;;;7.82;3.97;;;15.70;49.10;;;;;;5071512;28;20044;-82
2024/03/26 09:23:14;;;;;;;5.72;3.42;;;15.40;50.00;;;;;;5066327;28;20041;-83
2024/03/26 09:25:43;;;;;;;8.57;3.40;;;15.30;50.40;;;;;;5071541;28;20474;-82
2024/03/26 09:28:08;;;;;;;8.73;3.67;;;15.10;50.70;;;;;;5067319;28;20083;-82
2024/03/26 09:30:34;;;;;;;14.38;5.82;;;14.90;51.20;;;;;;5047213;28;20021;-82
2024/03/26 09:33:00;;;;;;;5.40;3.47;;;14.60;52.00;;;;;;5056141;28;20021;-81
2024/03/26 09:35:26;;;;;;;14.10;4.60;;;14.20;53.10;;;;;;5065995;28;20028;-81
2024/03/26 09:37:52;;;;;;;4.13;2.90;;;14.80;53.00;;;;;;5059186;28;20041;-80
2024/03/26 09:40:17;;;;;;;6.25;3.80;;;14.90;51.30;;;;;;5059995;28;20449;-80
2024/03/26 09:42:43;;;;;;;9.73;4.43;;;14.20;52.50;;;;;;5045945;28;20040;-82
2024/03/26 09:45:13;;;;;;;7.63;4.88;;;13.70;53.60;;;;;;5065524;28;20389;-83
2024/03/26 09:47:41;;;;;;;7.65;4.63;;;13.00;55.10;;;;;;5065018;28;20071;-82
2024/03/26 09:50:07;;;;;;;8.18;4.22;;;13.00;55.40;;;;;;5073537;28;20021;-81
2024/03/26 09:52:34;;;;;;;9.68;4.03;;;12.80;55.40;;;;;;5070484;28;20056;-82
2024/03/26 09:59:15;;;;;;;12.05;4.43;;;12.10;57.00;;;;;;4954819;28;20123;-82
2024/03/26 10:01:44;;;;;;;10.80;4.43;;;12.50;57.10;;;;;;4924615;28;20042;-81
2024/03/26 10:04:10;;;;;;;9.05;4.45;;;12.80;56.60;;;;;;4945743;29;20118;-81
2024/03/26 10:06:37;;;;;;;10.57;4.25;;;12.30;57.10;;;;;;4952967;28;20429;-80
2024/03/26 10:09:03;;;;;;;6.78;3.50;;;12.40;57.70;;;;;;4955226;28;20460;-80
2024/03/26 10:11:29;;;;;;;5.35;2.60;;;12.80;56.30;;;;;;4943459;29;20090;-80
2024/03/26 10:13:55;;;;;;;10.43;3.40;;;13.00;56.00;;;;;;4943511;28;20027;-81
2024/03/26 10:16:21;;;;;;;12.63;4.30;;;12.50;56.10;;;;;;4955592;28;20044;-82
2024/03/26 10:18:47;;;;;;;11.88;4.20;;;12.50;56.60;;;;;;4954947;28;20082;-80
2024/03/26 10:21:13;;;;;;;10.07;5.18;;;12.50;57.00;;;;;;4954987;28;20571;-80
2024/03/26 10:23:40;;;;;;;5.93;4.82;;;12.50;56.30;;;;;;4937778;28;20092;-82
2024/03/26 10:26:06;;;;;;;7.07;4.05;;;12.50;56.60;;;;;;4954196;28;20078;-84
2024/03/26 10:28:32;;;;;;;9.27;3.95;;;12.60;56.90;;;;;;4978043;28;20044;-81
2024/03/26 10:30:59;;;;;;;7.68;3.58;;;12.50;56.60;;;;;;5056260;28;20017;-81
2024/03/26 10:33:25;;;;;;;12.43;4.47;;;12.60;55.90;;;;;;5038913;28;20025;-81
2024/03/26 10:35:57;;;;;;;9.18;3.65;;;12.60;56.50;;;;;;5057318;28;20029;-80
2024/03/26 10:38:24;;;;;;;6.75;3.60;;;12.50;56.10;;;;;;5055946;28;20056;-79
2024/03/26 10:41:02;;;;;;;5.90;3.65;;;12.50;56.60;;;;;;5055857;28;20033;-79
2024/03/26 10:43:28;;;;;;;8.63;4.10;;;12.60;56.30;;;;;;5050904;28;20044;-80
2024/03/26 10:45:54;;;;;;;14.75;5.93;;;12.40;56.20;;;;;;5046313;28;20044;-80
2024/03/26 10:48:21;;;;;;;6.25;4.35;;;12.40;56.90;;;;;;5053831;28;20490;-79
2024/03/26 10:50:49;;;;;;;7.90;4.95;;;12.60;56.70;;;;;;5040533;28;20022;-82
2024/03/26 10:53:17;;;;;;;10.98;4.15;;;12.70;56.60;;;;;;5077911;28;20070;-82
2024/03/26 10:55:43;;;;;;;11.65;5.53;;;13.00;56.20;;;;;;5049872;28;20032;-81
2024/03/26 10:58:09;;;;;;;15.88;4.45;;;13.00;55.90;;;;;;5031990;28;20033;-80
2024/03/26 11:00:40;;;;;;;10.77;4.70;;;13.10;55.90;;;;;;5048905;28;20111;-81
2024/03/26 11:03:08;;;;;;;8.18;3.78;;;13.00;55.30;;;;;;5065014;28;20390;-80
2024/03/26 11:05:39;;;;;;;5.32;3.72;;;12.70;55.10;;;;;;5060696;28;20027;-80
2024/03/26 11:08:18;;;;;;;11.02;4.80;;;12.30;56.20;;;;;;5058677;28;20075;-79
2024/03/26 11:10:57;;;;;;;13.35;4.15;;;12.20;57.10;;;;;;5060652;28;20103;-80
2024/03/26 11:13:34;;;;;;;18.70;4.72;;;12.30;57.30;;;;;;5049229;28;20104;-81
2024/03/26 11:16:00;;;;;;;3.85;3.40;;;12.20;56.10;;;;;;5064467;28;20036;-80
2024/03/26 11:18:31;;;;;;;8.45;3.92;;;12.20;55.00;;;;;;5059379;28;20051;-79
2024/03/26 11:21:10;;;;;;;7.97;4.30;;;11.90;55.50;;;;;;5061749;28;20378;-80
2024/03/26 11:23:44;;;;;;;9.27;4.85;;;11.60;56.60;;;;;;5072379;28;20370;-81
2024/03/26 11:26:25;;;;;;;11.80;4.28;;;11.20;57.40;;;;;;5055786;28;20036;-82
2024/03/26 11:28:51;;;;;;;9.88;4.10;;;11.10;58.00;;;;;;5069644;28;20019;-85
2024/03/26 11:31:19;;;;;;;6.30;3.95;;;11.30;57.50;;;;;;5072514;28;20112;-80
2024/03/26 11:33:54;;;;;;;10.10;5.15;;;11.70;56.90;;;;;;5059691;28;20024;-80
2024/03/26 11:36:20;;;;;;;9.07;4.45;;;11.60;56.50;;;;;;5064981;28;20059;-81
2024/03/26 11:38:47;;;;;;;10.02;4.45;;;11.10;56.80;;;;;;5063158;28;20032;-82
2024/03/26 11:41:15;;;;;;;8.65;4.15;;;10.70;57.20;;;;;;5054106;28;20371;-81
2024/03/26 11:43:41;;;;;;;8.90;3.72;;;10.70;57.60;;;;;;5053974;28;20037;-85
2024/03/26 11:46:13;;;;;;;10.88;3.95;;;10.60;57.40;;;;;;5060886;28;20103;-89
2024/03/26 11:48:38;;;;;;;7.57;3.90;;;10.60;58.20;;;;;;5046590;28;20104;-91
2024/03/26 11:51:04;;;;;;;8.25;2.90;;;10.70;58.10;;;;;;5077555;28;20389;-85
2024/03/26 11:53:36;;;;;;;6.63;3.92;;;10.60;58.30;;;;;;5070089;28;20477;-88
2024/03/26 11:56:04;;;;;;;7.22;3.70;;;10.70;58.90;;;;;;5070905;28;20021;-84
2024/03/26 11:58:30;;;;;;;4.75;3.50;;;10.90;58.20;;;;;;5062985;28;20017;-88
2024/03/26 12:00:56;;;;;;;6.38;3.13;;;10.90;57.00;;;;;;5060060;28;20024;-83
2024/03/26 12:03:22;;;;;;;6.68;2.90;;;10.90;56.70;;;;;;5040167;28;20052;-82
2024/03/26 12:05:50;;;;;;;12.15;4.18;;;10.60;56.50;;;;;;5057649;28;20107;-83
2024/03/26 12:08:16;;;;;;;14.38;4.80;;;10.50;57.60;;;;;;5066915;28;20044;-84
2024/03/26 12:10:42;;;;;;;15.10;4.05;;;10.80;57.90;;;;;;5047858;28;20382;-85
2024/03/26 12:13:08;;;;;;;5.72;3.72;;;11.20;58.00;;;;;;5059076;28;20036;-86
2024/03/26 12:15:34;;;;;;;8.95;4.28;;;11.50;57.90;;;;;;5059340;28;20025;-84
2024/03/26 12:18:02;;;;;;;7.82;3.80;;;11.80;57.40;;;;;;5065836;28;20044;-83
2024/03/26 12:20:28;;;;;;;19.70;4.28;;;11.80;56.90;;;;;;5041318;28;20075;-87
2024/03/26 12:22:56;;;;;;;6.63;3.78;;;11.80;57.10;;;;;;5042450;28;20063;-84
2024/03/26 12:25:21;;;;;;;7.75;3.67;;;11.70;58.00;;;;;;5056550;28;20096;-86
2024/03/26 12:27:48;;;;;;;6.28;3.05;;;11.40;58.00;;;;;;5058129;28;20076;-86
2024/03/26 12:30:14;;;;;;;7.25;3.78;;;11.20;58.40;;;;;;5037724;28;20402;-86
2024/03/26 12:32:41;;;;;;;8.18;3.92;;;11.00;58.90;;;;;;5038349;28;20025;-85
2024/03/26 12:35:09;;;;;;;17.27;3.50;;;10.90;58.80;;;;;;5037702;28;20029;-86
2024/03/26 12:37:35;;;;;;;8.55;3.95;;;10.90;58.60;;;;;;5053923;28;20438;-83
2024/03/26 12:40:00;;;;;;;8.35;2.90;;;10.80;58.30;;;;;;5053673;28;20082;-83
2024/03/26 12:42:26;;;;;;;7.80;3.63;;;10.30;58.80;;;;;;5052430;28;20044;-84
2024/03/26 12:44:52;;;;;;;6.95;2.67;;;10.10;59.90;;;;;;5035829;28;20029;-89
2024/03/26 12:47:18;;;;;;;8.43;3.28;;;9.90;59.90;;;;;;5036693;28;20035;-92